Terminal Aerodrome Forecast
Issued by NWS Greer, SC

Home | Current Version | Previous Version | Text Only | Print | Product List | Glossary On
Versions: 1 2 3 4 5 6 7 8 9 10 11 12 13 14 15 16 17 18 19
000
FTUS42 KGSP 010913 AAB
TAFGSP
TAF AMD
KGSP 010913Z 0109/0206 04006KT 5SM BR OVC023
      TEMPO 0109/0110 -RA
     FM011000 03007KT 5SM -FZRA OVC017
     FM011200 03006KT 5SM -FZRA BR OVC024
     FM011400 04006KT 4SM -RA OVC020
     FM011900 05003KT P6SM OVC017
     FM012200 18003KT P6SM OVC050=

USA.gov is the U.S. government's official web portal to all federal, state and local government web resources and services.